Time;durP1;ratioP1;P1;durP2;ratioP2;P2;SDS_P1;SDS_P2;PMS_P1;PMS_P2;Temp;Humidity;BMP_temperature;BMP_pressure;BME280_temperature;BME280_humidity;BME280_pressure;Samples;Min_cycle;Max_cycle;Signal;HPM_P1;HPM_P2
2021/09/09 00:01:41;;;;;;;10.40;9.30;;;16.90;89.00;;;;;;5053691;28;20519;-67
2021/09/09 00:04:08;;;;;;;11.60;8.10;;;16.80;89.70;;;;;;5037869;28;20921;-67
2021/09/09 00:06:37;;;;;;;10.47;9.07;;;16.80;90.00;;;;;;5033816;28;20448;-66
2021/09/09 00:09:06;;;;;;;11.30;9.50;;;16.70;90.10;;;;;;5047013;28;20473;-66
2021/09/09 00:11:33;;;;;;;10.70;9.60;;;16.70;90.10;;;;;;5053586;28;20444;-66
2021/09/09 00:14:00;;;;;;;12.40;9.57;;;16.70;90.20;;;;;;5039499;28;20450;-66
2021/09/09 00:16:30;;;;;;;12.63;8.80;;;16.60;89.90;;;;;;5033139;28;20516;-66
2021/09/09 00:18:57;;;;;;;12.10;8.40;;;16.60;88.90;;;;;;5044690;28;20495;-66
2021/09/09 00:21:24;;;;;;;8.80;8.00;;;16.50;88.60;;;;;;5053127;28;20441;-66
2021/09/09 00:23:53;;;;;;;13.13;8.90;;;16.40;88.50;;;;;;5042892;28;20434;-67
2021/09/09 00:26:22;;;;;;;12.17;8.90;;;16.40;89.30;;;;;;5033108;28;20441;-66
2021/09/09 00:28:49;;;;;;;12.07;8.53;;;16.40;89.70;;;;;;5042130;28;20966;-66
2021/09/09 00:31:17;;;;;;;12.67;10.80;;;16.30;90.30;;;;;;5053085;28;20843;-67
2021/09/09 00:33:44;;;;;;;12.50;10.30;;;16.30;90.50;;;;;;5037117;28;20449;-67
2021/09/09 00:36:12;;;;;;;11.47;10.20;;;16.30;90.90;;;;;;5033015;28;20452;-66
2021/09/09 00:38:40;;;;;;;12.17;10.87;;;16.20;91.00;;;;;;5046832;28;20453;-67
2021/09/09 00:41:07;;;;;;;11.27;10.17;;;16.20;91.10;;;;;;5052984;28;20892;-67
2021/09/09 00:43:36;;;;;;;11.40;9.63;;;16.20;91.40;;;;;;5039642;28;20804;-66
2021/09/09 00:46:03;;;;;;;10.87;8.43;;;16.20;91.40;;;;;;5032968;28;20433;-66
2021/09/09 00:48:31;;;;;;;11.90;10.30;;;16.20;91.40;;;;;;5044499;28;20441;-66
2021/09/09 00:51:00;;;;;;;11.13;9.17;;;16.20;91.30;;;;;;5052708;28;20484;-66
2021/09/09 00:53:30;;;;;;;23.63;9.93;;;16.20;91.30;;;;;;5041654;28;20462;-66
2021/09/09 00:55:57;;;;;;;11.07;9.50;;;16.20;91.00;;;;;;5032934;28;20850;-67
2021/09/09 00:58:29;;;;;;;9.03;7.50;;;16.20;90.80;;;;;;5041898;28;20521;-66
2021/09/09 01:00:58;;;;;;;9.10;8.20;;;16.20;90.80;;;;;;5052426;28;20447;-66
2021/09/09 01:03:25;;;;;;;11.87;9.40;;;16.20;90.70;;;;;;5043053;28;20943;-66
2021/09/09 01:05:53;;;;;;;10.90;9.10;;;16.20;90.60;;;;;;5051164;28;20445;-66
2021/09/09 01:08:20;;;;;;;8.90;8.00;;;16.10;90.30;;;;;;5051584;28;20872;-66
2021/09/09 01:10:47;;;;;;;9.63;8.60;;;16.10;90.20;;;;;;5052197;28;20473;-66
2021/09/09 01:13:14;;;;;;;10.20;8.43;;;16.10;90.30;;;;;;5045794;28;20508;-66
2021/09/09 01:15:42;;;;;;;9.70;8.00;;;16.10;90.50;;;;;;5032167;28;20493;-67
2021/09/09 01:18:15;;;;;;;11.77;9.40;;;16.00;90.50;;;;;;5036879;28;20499;-66
2021/09/09 01:20:44;;;;;;;10.33;8.60;;;16.00;90.50;;;;;;5052216;28;20915;-66
2021/09/09 01:23:11;;;;;;;11.70;8.63;;;16.00;90.50;;;;;;5039954;28;20967;-67
2021/09/09 01:25:45;;;;;;;9.57;8.57;;;15.90;90.80;;;;;;5031676;28;20450;-66
2021/09/09 01:28:12;;;;;;;9.03;8.10;;;15.90;90.70;;;;;;5042716;28;20464;-66
2021/09/09 01:30:40;;;;;;;8.80;7.93;;;15.90;90.90;;;;;;5051887;28;20488;-66
2021/09/09 01:33:08;;;;;;;9.13;8.13;;;15.80;90.70;;;;;;5041695;28;20515;-66
2021/09/09 01:35:36;;;;;;;8.90;8.00;;;15.80;91.00;;;;;;5032393;28;20437;-66
2021/09/09 01:38:03;;;;;;;9.43;8.43;;;15.80;90.90;;;;;;5040557;28;20507;-66
2021/09/09 01:40:31;;;;;;;9.63;8.63;;;15.80;91.20;;;;;;5051818;28;20437;-67
2021/09/09 01:43:06;;;;;;;8.93;7.90;;;15.80;90.90;;;;;;5044113;28;20445;-66
2021/09/09 01:45:33;;;;;;;9.33;8.30;;;15.80;90.90;;;;;;5031973;28;20916;-66
2021/09/09 01:48:02;;;;;;;8.40;7.43;;;15.70;90.70;;;;;;5038660;28;20433;-66
2021/09/09 01:50:34;;;;;;;8.40;7.60;;;15.70;90.60;;;;;;5051836;28;20982;-66
2021/09/09 01:53:03;;;;;;;8.77;7.63;;;15.70;90.60;;;;;;5040194;28;20935;-66
2021/09/09 01:55:30;;;;;;;10.70;8.03;;;15.70;90.10;;;;;;5031887;28;20445;-66
2021/09/09 01:57:58;;;;;;;11.10;7.60;;;15.60;90.60;;;;;;5051800;28;20441;-67
2021/09/09 02:00:26;;;;;;;9.77;7.70;;;15.50;91.20;;;;;;5051673;28;20514;-66
2021/09/09 02:02:59;;;;;;;9.70;7.93;;;15.50;91.30;;;;;;5033145;28;20489;-67
2021/09/09 02:05:26;;;;;;;9.57;7.33;;;15.40;91.40;;;;;;5031850;28;20445;-66
2021/09/09 02:07:53;;;;;;;9.33;8.40;;;15.40;91.60;;;;;;5050146;28;20503;-66
2021/09/09 02:10:22;;;;;;;10.33;9.23;;;15.30;91.90;;;;;;5051477;28;20550;-66
2021/09/09 02:12:50;;;;;;;10.00;8.90;;;15.30;92.40;;;;;;5033833;28;20519;-66
2021/09/09 02:15:18;;;;;;;9.60;8.60;;;15.30;92.70;;;;;;5031619;28;20437;-66
2021/09/09 02:17:47;;;;;;;12.23;8.10;;;15.30;92.60;;;;;;5047576;28;21035;-67
2021/09/09 02:20:15;;;;;;;9.33;8.30;;;15.30;92.50;;;;;;5051710;28;20433;-66
2021/09/09 02:22:45;;;;;;;10.30;9.17;;;15.30;92.90;;;;;;5035880;28;20453;-67
2021/09/09 02:25:14;;;;;;;9.77;8.73;;;15.40;93.00;;;;;;5031530;28;20500;-67
2021/09/09 02:27:42;;;;;;;9.30;7.90;;;15.50;93.00;;;;;;5045743;28;20432;-67
2021/09/09 02:30:11;;;;;;;8.40;7.37;;;15.50;92.80;;;;;;5051351;28;20481;-67
2021/09/09 02:32:40;;;;;;;10.00;8.30;;;15.50;92.80;;;;;;5037954;28;20456;-66
2021/09/09 02:35:10;;;;;;;9.17;8.23;;;15.50;92.70;;;;;;5031794;28;20441;-67
2021/09/09 02:37:38;;;;;;;10.50;8.53;;;15.40;92.50;;;;;;5051519;28;20441;-66
2021/09/09 02:40:07;;;;;;;9.53;8.27;;;15.40;92.90;;;;;;5055446;28;20445;-67
2021/09/09 02:42:40;;;;;;;11.43;9.33;;;15.40;93.10;;;;;;5036675;28;20446;-66
2021/09/09 02:45:09;;;;;;;10.43;9.33;;;15.40;93.30;;;;;;5035257;28;20559;-67
2021/09/09 02:47:37;;;;;;;11.30;9.00;;;15.30;93.50;;;;;;5052997;28;20433;-66
2021/09/09 02:50:05;;;;;;;12.77;8.40;;;15.40;93.60;;;;;;5055115;28;20489;-66
2021/09/09 02:52:34;;;;;;;10.60;8.57;;;15.40;93.60;;;;;;5037973;28;20616;-66
2021/09/09 02:55:05;;;;;;;10.17;9.00;;;15.50;93.60;;;;;;5035122;28;20446;-66
2021/09/09 02:57:32;;;;;;;9.27;8.30;;;15.50;93.60;;;;;;5051130;28;20490;-66
2021/09/09 03:00:00;;;;;;;10.30;8.30;;;15.50;93.30;;;;;;5045083;28;20525;-68
2021/09/09 03:02:27;;;;;;;9.37;8.27;;;15.50;93.40;;;;;;5041776;28;20441;-66
2021/09/09 03:04:54;;;;;;;10.80;7.40;;;15.50;93.50;;;;;;5054785;28;20441;-66
2021/09/09 03:07:23;;;;;;;11.30;10.10;;;15.50;93.50;;;;;;5048699;28;20499;-66
2021/09/09 03:09:52;;;;;;;9.50;8.47;;;15.50;93.30;;;;;;5034783;28;20484;-66
2021/09/09 03:12:19;;;;;;;10.10;8.83;;;15.50;93.20;;;;;;5038925;28;20919;-66
2021/09/09 03:14:46;;;;;;;12.90;8.60;;;15.60;93.20;;;;;;5054827;28;20464;-67
2021/09/09 03:17:14;;;;;;;9.23;8.33;;;15.50;93.20;;;;;;5050793;28;20523;-67
2021/09/09 03:19:41;;;;;;;10.33;9.27;;;15.50;93.20;;;;;;5034769;28;20437;-67
2021/09/09 03:22:10;;;;;;;10.93;9.17;;;15.60;93.20;;;;;;5036043;28;20533;-66
2021/09/09 03:24:37;;;;;;;10.10;8.60;;;15.60;93.10;;;;;;5054560;28;20440;-66
2021/09/09 03:27:06;;;;;;;10.17;9.17;;;15.60;93.40;;;;;;5054243;28;20448;-67
2021/09/09 03:29:33;;;;;;;10.70;9.30;;;15.60;92.90;;;;;;5034564;28;20496;-66
2021/09/09 03:32:01;;;;;;;10.87;8.80;;;15.60;92.70;;;;;;5037540;28;20512;-69
2021/09/09 03:34:28;;;;;;;9.83;7.70;;;15.60;92.50;;;;;;5034218;28;20505;-66
2021/09/09 03:36:55;;;;;;;9.87;8.87;;;15.50;92.30;;;;;;5034736;28;21295;-68
2021/09/09 03:39:22;;;;;;;9.60;8.60;;;15.50;92.30;;;;;;5035306;28;21006;-67
2021/09/09 03:41:52;;;;;;;9.03;8.13;;;15.50;92.30;;;;;;5033997;28;20438;-66
2021/09/09 03:44:21;;;;;;;9.30;7.50;;;15.50;92.20;;;;;;5035106;28;20987;-67
2021/09/09 03:46:50;;;;;;;10.10;8.40;;;15.50;92.10;;;;;;5054227;28;20766;-66
2021/09/09 03:49:17;;;;;;;9.53;8.30;;;15.50;92.30;;;;;;5052766;28;20437;-67
2021/09/09 03:51:44;;;;;;;8.97;7.90;;;15.50;92.40;;;;;;5033870;28;20531;-66
2021/09/09 03:54:11;;;;;;;9.73;7.37;;;15.60;92.50;;;;;;5038268;28;20429;-66
2021/09/09 03:56:39;;;;;;;8.93;8.10;;;15.60;92.60;;;;;;5053646;28;20445;-67
2021/09/09 03:59:06;;;;;;;10.23;8.53;;;15.60;92.50;;;;;;5050242;28;20474;-66
2021/09/09 04:01:35;;;;;;;11.30;8.47;;;15.60;92.50;;;;;;5033922;28;20957;-68
2021/09/09 04:04:02;;;;;;;9.63;8.40;;;15.60;92.40;;;;;;5035646;28;21124;-66
2021/09/09 04:06:29;;;;;;;9.70;7.70;;;15.60;92.30;;;;;;5054147;28;20480;-66
2021/09/09 04:08:57;;;;;;;14.97;7.27;;;15.50;92.20;;;;;;5053093;28;20485;-66
2021/09/09 04:11:27;;;;;;;10.60;7.77;;;15.40;91.80;;;;;;5033964;28;20577;-66
2021/09/09 04:13:54;;;;;;;11.23;8.50;;;15.40;92.00;;;;;;5033865;28;20549;-66
2021/09/09 04:16:21;;;;;;;14.23;8.70;;;15.30;92.10;;;;;;5033603;28;20497;-67
2021/09/09 04:18:50;;;;;;;9.70;8.80;;;15.30;92.30;;;;;;5033701;28;20549;-66
2021/09/09 04:21:17;;;;;;;9.90;8.80;;;15.30;92.40;;;;;;5051137;28;20445;-66
2021/09/09 04:23:44;;;;;;;11.90;8.83;;;15.30;92.30;;;;;;5053343;28;20992;-66
2021/09/09 04:26:11;;;;;;;12.97;8.30;;;15.30;92.60;;;;;;5036180;28;20445;-66
2021/09/09 04:28:39;;;;;;;9.83;8.83;;;15.20;92.80;;;;;;5047455;28;20445;-67
2021/09/09 04:31:06;;;;;;;12.57;8.00;;;15.20;92.80;;;;;;5053466;28;20489;-67
2021/09/09 04:33:33;;;;;;;9.33;8.40;;;15.30;92.90;;;;;;5040398;28;20838;-66
2021/09/09 04:36:03;;;;;;;11.50;8.80;;;15.30;92.80;;;;;;5033529;28;20449;-66
2021/09/09 04:38:30;;;;;;;9.93;9.03;;;15.20;92.70;;;;;;5044498;28;21005;-66
2021/09/09 04:40:57;;;;;;;10.53;8.90;;;15.30;92.90;;;;;;5053181;28;20927;-67
2021/09/09 04:43:24;;;;;;;9.27;8.37;;;15.30;92.80;;;;;;5042639;28;20932;-67
2021/09/09 04:45:52;;;;;;;12.33;8.10;;;15.30;92.80;;;;;;5035149;28;21016;-66
2021/09/09 04:48:19;;;;;;;8.97;8.07;;;15.30;92.70;;;;;;5053290;28;20472;-67
2021/09/09 04:50:47;;;;;;;9.53;7.80;;;15.20;92.00;;;;;;5051632;28;20485;-66
2021/09/09 04:53:16;;;;;;;9.50;7.10;;;15.20;92.30;;;;;;5034162;28;20507;-66
2021/09/09 04:55:43;;;;;;;9.97;7.70;;;15.20;92.00;;;;;;5032813;28;20932;-67
2021/09/09 04:58:10;;;;;;;12.13;9.17;;;15.20;91.90;;;;;;5052971;28;20815;-67
2021/09/09 05:00:37;;;;;;;10.60;9.10;;;15.20;92.00;;;;;;5048577;28;20962;-68
2021/09/09 05:03:07;;;;;;;10.10;8.63;;;15.20;92.10;;;;;;5032920;28;20442;-68
2021/09/09 05:05:40;;;;;;;10.63;9.60;;;15.10;91.90;;;;;;5036739;28;20446;-68
2021/09/09 05:08:07;;;;;;;11.00;8.43;;;15.10;92.00;;;;;;5053171;28;20473;-68
2021/09/09 05:10:36;;;;;;;7.73;6.90;;;15.10;92.00;;;;;;5049093;28;20562;-68
2021/09/09 05:13:05;;;;;;;9.30;7.60;;;15.10;91.80;;;;;;5033015;28;20437;-68
2021/09/09 05:15:32;;;;;;;9.10;8.00;;;15.00;91.60;;;;;;5034629;28;21130;-68
2021/09/09 05:18:11;;;;;;;9.67;8.70;;;15.00;91.60;;;;;;5052792;28;20444;-68
2021/09/09 05:20:39;;;;;;;8.83;7.93;;;15.00;91.70;;;;;;5049867;28;21208;-67
2021/09/09 05:23:07;;;;;;;11.80;8.97;;;15.00;91.80;;;;;;5032682;28;20442;-68
2021/09/09 05:25:37;;;;;;;10.63;8.77;;;15.00;91.90;;;;;;5033600;28;20800;-68
2021/09/09 05:28:04;;;;;;;10.93;9.03;;;15.10;92.10;;;;;;5052755;28;20428;-68
2021/09/09 05:30:31;;;;;;;9.87;8.87;;;15.00;92.20;;;;;;5051789;28;20480;-68
2021/09/09 05:32:58;;;;;;;10.20;8.87;;;15.00;92.30;;;;;;5032732;28;20449;-68
2021/09/09 05:35:26;;;;;;;9.30;8.30;;;15.10;92.30;;;;;;5032693;28;20868;-68
2021/09/09 05:38:11;;;;;;;15.77;10.67;;;15.00;92.10;;;;;;5051137;28;20437;-70
2021/09/09 05:40:40;;;;;;;12.20;9.10;;;15.10;92.30;;;;;;5052364;28;20440;-69
2021/09/09 05:43:08;;;;;;;11.70;8.33;;;15.10;92.40;;;;;;5032446;28;20495;-68
2021/09/09 05:45:37;;;;;;;15.10;9.13;;;15.20;92.60;;;;;;5032424;28;20442;-68
2021/09/09 05:48:05;;;;;;;14.43;11.53;;;15.20;92.70;;;;;;5032712;28;20191;-67
2021/09/09 05:50:32;;;;;;;15.60;11.70;;;15.20;93.00;;;;;;5032332;28;21122;-67
2021/09/09 05:53:00;;;;;;;17.00;12.60;;;15.40;93.10;;;;;;5049736;28;20443;-68
2021/09/09 05:55:31;;;;;;;11.33;9.93;;;15.40;93.20;;;;;;5050647;28;20433;-67
2021/09/09 05:58:00;;;;;;;9.37;7.93;;;15.60;93.20;;;;;;5052127;28;20847;-68
2021/09/09 06:00:37;;;;;;;11.80;9.63;;;15.70;93.10;;;;;;5047218;28;20491;-67
2021/09/09 06:03:04;;;;;;;11.03;9.07;;;15.80;92.90;;;;;;5036872;28;21223;-67
2021/09/09 06:05:35;;;;;;;12.67;8.77;;;16.00;92.40;;;;;;5032600;28;20441;-67
2021/09/09 06:08:04;;;;;;;9.70;8.70;;;16.10;92.00;;;;;;5043419;28;20472;-67
2021/09/09 06:10:31;;;;;;;10.40;8.90;;;16.10;92.00;;;;;;5042093;28;20528;-67
2021/09/09 06:12:59;;;;;;;11.13;9.90;;;16.20;92.30;;;;;;5049169;28;20449;-67
2021/09/09 06:15:28;;;;;;;10.80;9.10;;;16.40;92.20;;;;;;5055497;28;20468;-68
2021/09/09 06:17:55;;;;;;;10.20;9.20;;;16.50;92.10;;;;;;5055521;28;20527;-67
2021/09/09 06:20:23;;;;;;;11.73;9.30;;;16.60;92.00;;;;;;5055071;28;20477;-69
2021/09/09 06:22:50;;;;;;;11.67;8.73;;;16.60;91.60;;;;;;5053663;28;20521;-68
2021/09/09 06:25:22;;;;;;;8.83;7.93;;;16.70;91.80;;;;;;5055877;28;20947;-68
2021/09/09 06:27:49;;;;;;;8.47;7.47;;;16.80;91.90;;;;;;5056082;28;20939;-68
2021/09/09 06:30:17;;;;;;;9.10;7.70;;;17.00;91.40;;;;;;5053504;28;20488;-68
2021/09/09 06:32:44;;;;;;;10.53;7.83;;;17.00;91.40;;;;;;5055623;28;20911;-68
2021/09/09 06:35:16;;;;;;;11.57;8.83;;;17.20;91.50;;;;;;5053930;28;21003;-68
2021/09/09 06:37:43;;;;;;;8.83;7.93;;;17.30;91.60;;;;;;5055300;28;20496;-68
2021/09/09 06:40:10;;;;;;;12.70;9.37;;;17.40;92.00;;;;;;5054399;28;20520;-67
2021/09/09 06:42:45;;;;;;;9.50;8.60;;;17.50;92.00;;;;;;5054521;28;20520;-72
2021/09/09 06:45:13;;;;;;;8.87;6.97;;;17.60;92.00;;;;;;5049332;28;20428;-68
2021/09/09 06:47:42;;;;;;;11.00;8.43;;;17.70;90.80;;;;;;5038980;28;20429;-68
2021/09/09 06:50:10;;;;;;;9.57;8.00;;;17.80;90.90;;;;;;5037017;28;20433;-68
2021/09/09 06:52:37;;;;;;;10.33;8.33;;;17.90;90.20;;;;;;5054641;28;20523;-68
2021/09/09 06:55:05;;;;;;;11.77;8.33;;;18.10;88.90;;;;;;5055268;28;20494;-68
2021/09/09 06:57:32;;;;;;;9.40;8.07;;;18.20;88.90;;;;;;5055350;28;20444;-69
2021/09/09 07:00:02;;;;;;;15.10;8.90;;;18.40;89.90;;;;;;5055144;28;20441;-68
2021/09/09 07:02:29;;;;;;;9.53;8.43;;;18.60;90.10;;;;;;5053744;28;20487;-68
2021/09/09 07:04:57;;;;;;;7.97;7.17;;;18.90;90.20;;;;;;5054384;28;20437;-68
2021/09/09 07:07:24;;;;;;;11.17;8.13;;;19.20;88.40;;;;;;5055097;28;20448;-68
2021/09/09 07:09:51;;;;;;;10.43;8.37;;;19.60;89.90;;;;;;5054093;28;20494;-68
2021/09/09 07:12:23;;;;;;;9.43;7.17;;;20.00;89.40;;;;;;5054738;28;20487;-68
2021/09/09 07:14:55;;;;;;;9.27;7.33;;;20.50;89.10;;;;;;5054370;28;20476;-69
2021/09/09 07:17:31;;;;;;;12.23;7.27;;;21.00;87.50;;;;;;5044808;28;20524;-68
2021/09/09 07:20:00;;;;;;;9.10;7.30;;;21.60;81.50;;;;;;5035064;28;20446;-69
2021/09/09 07:22:27;;;;;;;10.00;6.83;;;22.30;85.10;;;;;;5054419;28;20936;-68
2021/09/09 07:24:54;;;;;;;6.93;5.80;;;23.10;79.60;;;;;;5051416;28;20437;-69
2021/09/09 07:27:22;;;;;;;6.93;6.23;;;24.10;78.50;;;;;;5034967;28;20772;-68
2021/09/09 07:29:49;;;;;;;6.53;5.50;;;25.20;68.60;;;;;;5035648;28;20492;-69
2021/09/09 07:32:16;;;;;;;8.17;6.10;;;26.70;65.90;;;;;;5034557;28;20473;-68
2021/09/09 07:34:43;;;;;;;9.97;6.80;;;28.80;54.10;;;;;;5042664;28;20947;-69
2021/09/09 07:37:12;;;;;;;8.23;5.87;;;30.50;48.90;;;;;;5054652;28;20442;-69
2021/09/09 07:39:39;;;;;;;10.77;6.00;;;32.20;45.30;;;;;;5046882;28;20453;-69
2021/09/09 07:42:06;;;;;;;7.20;6.00;;;33.40;39.40;;;;;;5035839;28;20449;-69
2021/09/09 07:44:34;;;;;;;8.90;6.03;;;34.50;37.40;;;;;;5051316;28;20445;-70
2021/09/09 07:47:02;;;;;;;8.53;5.93;;;35.90;35.70;;;;;;5049043;28;20440;-69
2021/09/09 07:49:29;;;;;;;6.90;5.97;;;37.30;32.30;;;;;;5054449;28;20512;-69
2021/09/09 07:52:00;;;;;;;8.27;5.40;;;38.30;29.80;;;;;;5047927;28;20874;-69
2021/09/09 07:54:33;;;;;;;6.17;5.57;;;38.70;27.90;;;;;;5034452;28;20442;-70
2021/09/09 07:57:09;;;;;;;6.43;5.50;;;39.60;28.00;;;;;;5050934;28;20461;-67
2021/09/09 07:59:36;;;;;;;4.77;4.37;;;40.50;25.20;;;;;;5040647;28;20789;-69
2021/09/09 08:02:04;;;;;;;7.30;5.70;;;41.00;24.00;;;;;;5040553;28;20437;-68
2021/09/09 08:04:31;;;;;;;7.50;5.60;;;41.70;23.00;;;;;;5051545;28;20931;-68
2021/09/09 08:07:04;;;;;;;5.70;4.93;;;41.50;22.80;;;;;;5053575;28;20463;-68
2021/09/09 08:09:32;;;;;;;6.30;5.00;;;41.90;23.00;;;;;;5034922;28;20430;-68
2021/09/09 08:12:01;;;;;;;10.93;6.10;;;42.10;23.10;;;;;;5050357;28;20480;-68
2021/09/09 08:14:29;;;;;;;6.63;5.80;;;43.00;21.70;;;;;;5040887;28;20429;-68
2021/09/09 08:17:01;;;;;;;6.63;5.77;;;43.80;21.10;;;;;;5039500;28;20470;-67
2021/09/09 08:19:34;;;;;;;6.40;5.80;;;44.20;20.70;;;;;;5042887;28;20465;-67
2021/09/09 08:22:01;;;;;;;5.43;4.93;;;44.90;20.80;;;;;;5049196;28;20436;-68
2021/09/09 08:24:35;;;;;;;5.57;4.93;;;45.40;19.00;;;;;;5033804;28;20854;-67
2021/09/09 08:27:02;;;;;;;7.27;5.00;;;46.10;19.00;;;;;;5050331;28;20437;-68
2021/09/09 08:29:29;;;;;;;5.83;5.20;;;46.70;17.80;;;;;;5050568;28;20464;-68
2021/09/09 08:31:57;;;;;;;5.90;5.40;;;47.10;17.50;;;;;;5034580;28;20827;-67
2021/09/09 08:34:24;;;;;;;5.63;5.13;;;47.50;17.30;;;;;;5034521;28;21011;-68
2021/09/09 08:36:51;;;;;;;7.23;5.97;;;47.80;16.20;;;;;;5053798;28;20803;-68
2021/09/09 08:39:18;;;;;;;9.23;5.03;;;48.10;16.80;;;;;;5044351;28;20500;-68
2021/09/09 08:41:46;;;;;;;5.50;4.70;;;48.70;16.00;;;;;;5033459;28;20518;-67
2021/09/09 08:44:13;;;;;;;5.87;5.37;;;49.20;15.40;;;;;;5050632;28;20482;-72
2021/09/09 08:46:42;;;;;;;5.27;4.63;;;49.10;14.90;;;;;;5049111;28;20502;-68
2021/09/09 08:49:09;;;;;;;7.40;5.20;;;49.30;15.80;;;;;;5052705;28;20514;-68
2021/09/09 08:51:36;;;;;;;6.03;4.30;;;50.00;15.10;;;;;;5035740;28;20469;-69
2021/09/09 08:54:03;;;;;;;4.73;4.33;;;49.40;14.80;;;;;;5033504;28;20469;-68
2021/09/09 08:56:30;;;;;;;5.13;4.63;;;49.80;15.00;;;;;;5041908;28;20502;-68
2021/09/09 08:58:59;;;;;;;5.07;4.20;;;50.20;15.10;;;;;;5034029;28;20473;-68
2021/09/09 09:01:26;;;;;;;5.97;5.43;;;50.60;13.80;;;;;;5035197;28;20969;-68
2021/09/09 09:03:55;;;;;;;5.20;4.57;;;50.80;13.80;;;;;;5035565;28;20483;-69
2021/09/09 09:06:38;;;;;;;5.77;4.40;;;51.50;14.60;;;;;;5052944;28;20472;-68
2021/09/09 09:09:10;;;;;;;4.10;3.70;;;52.40;14.20;;;;;;5036155;28;20434;-68
2021/09/09 09:11:40;;;;;;;6.23;5.60;;;53.20;12.50;;;;;;5040537;28;20451;-68
2021/09/09 09:14:09;;;;;;;4.90;4.17;;;53.20;13.50;;;;;;5050305;28;20541;-69
2021/09/09 09:16:37;;;;;;;4.20;3.60;;;53.80;13.30;;;;;;5049620;28;20897;-69
2021/09/09 09:19:09;;;;;;;4.13;3.73;;;54.40;13.40;;;;;;5044596;28;20438;-68
2021/09/09 09:21:41;;;;;;;5.00;3.63;;;55.00;12.90;;;;;;5039587;28;20810;-69
2021/09/09 09:24:08;;;;;;;4.00;3.50;;;55.60;12.40;;;;;;5039203;28;20517;-72
2021/09/09 09:26:35;;;;;;;4.50;3.70;;;56.10;11.70;;;;;;5048680;28;20516;-69
2021/09/09 09:29:02;;;;;;;4.63;4.10;;;56.40;11.30;;;;;;5041555;28;20442;-69
2021/09/09 09:31:32;;;;;;;4.10;3.70;;;56.60;11.60;;;;;;5032814;28;20442;-69
2021/09/09 09:34:01;;;;;;;4.33;4.00;;;57.00;11.30;;;;;;5041766;28;20441;-69
2021/09/09 09:36:29;;;;;;;3.70;3.40;;;57.40;11.40;;;;;;5052994;28;20524;-69
2021/09/09 09:39:05;;;;;;;3.77;3.30;;;57.70;11.30;;;;;;5047679;28;20522;-69
2021/09/09 09:41:32;;;;;;;3.77;3.47;;;58.00;11.30;;;;;;5046938;28;20440;-69
2021/09/09 09:44:00;;;;;;;3.40;3.10;;;58.30;10.90;;;;;;5043433;28;20781;-69
2021/09/09 09:46:33;;;;;;;4.30;3.43;;;58.70;10.70;;;;;;5041507;28;20437;-69
2021/09/09 09:49:24;;;;;;;3.73;3.43;;;59.00;10.40;;;;;;5045386;28;20499;-69
2021/09/09 09:51:52;;;;;;;4.50;4.10;;;59.10;10.20;;;;;;5053144;28;20436;-69
2021/09/09 09:54:20;;;;;;;4.37;3.97;;;59.40;10.20;;;;;;5040890;28;20785;-69
2021/09/09 09:56:49;;;;;;;4.67;3.80;;;59.40;10.00;;;;;;5032961;28;20528;-69
2021/09/09 09:59:16;;;;;;;4.00;3.30;;;59.60;10.50;;;;;;5033233;28;20449;-69
2021/09/09 10:01:45;;;;;;;3.70;3.13;;;59.70;9.90;;;;;;5046967;28;20914;-70
2021/09/09 10:04:13;;;;;;;3.63;3.33;;;59.90;9.60;;;;;;5039483;28;20520;-68
2021/09/09 10:06:43;;;;;;;3.47;3.17;;;60.20;9.90;;;;;;5032605;28;20516;-68
2021/09/09 10:09:10;;;;;;;3.20;2.90;;;60.30;9.70;;;;;;5046870;28;20447;-69
2021/09/09 10:11:39;;;;;;;3.40;2.93;;;60.30;9.50;;;;;;5052554;28;20436;-69
2021/09/09 10:14:06;;;;;;;3.20;2.90;;;60.40;9.40;;;;;;5048357;28;20943;-69
2021/09/09 10:16:37;;;;;;;2.70;2.50;;;60.40;8.70;;;;;;5041592;28;20475;-68
2021/09/09 10:19:06;;;;;;;3.17;2.60;;;60.60;8.60;;;;;;5052601;28;20436;-68
2021/09/09 10:21:47;;;;;;;5.90;2.87;;;60.60;8.60;;;;;;5050492;28;20825;-68
2021/09/09 10:24:18;;;;;;;4.67;2.70;;;60.20;8.80;;;;;;5032406;28;20523;-69
2021/09/09 10:26:45;;;;;;;4.03;3.30;;;60.20;9.10;;;;;;5046117;28;20415;-69
2021/09/09 10:29:46;;;;;;;2.80;2.60;;;60.40;8.50;;;;;;5050739;28;21161;-69
2021/09/09 10:33:04;;;;;;;3.77;3.20;;;60.90;8.50;;;;;;5048350;28;20798;-69
2021/09/09 10:35:39;;;;;;;3.83;3.00;;;60.60;8.10;;;;;;5049295;28;20516;-68
2021/09/09 10:38:28;;;;;;;4.23;2.67;;;57.10;8.00;;;;;;5048282;28;20795;-69
2021/09/09 10:40:57;;;;;;;3.40;2.67;;;55.90;10.30;;;;;;5049369;28;20838;-68
2021/09/09 10:43:48;;;;;;;3.37;2.70;;;56.60;10.30;;;;;;5045775;28;20481;-69
2021/09/09 10:46:17;;;;;;;3.37;2.30;;;57.50;9.80;;;;;;5048466;28;20843;-68
2021/09/09 10:48:46;;;;;;;2.73;2.40;;;58.30;9.30;;;;;;5038583;28;20531;-68
2021/09/09 10:51:19;;;;;;;2.97;2.67;;;58.50;8.80;;;;;;5032908;28;20441;-69
2021/09/09 10:53:55;;;;;;;3.17;2.87;;;58.10;9.10;;;;;;5045541;28;20448;-68
2021/09/09 10:56:26;;;;;;;2.80;2.50;;;58.40;8.30;;;;;;5049026;28;20782;-68
2021/09/09 10:59:15;;;;;;;3.03;2.73;;;58.20;8.60;;;;;;5049949;28;20475;-68
2021/09/09 11:01:48;;;;;;;3.47;2.77;;;58.40;9.10;;;;;;5052618;28;20442;-70
2021/09/09 11:04:29;;;;;;;3.80;2.70;;;57.90;8.90;;;;;;5035170;28;20441;-68
2021/09/09 11:06:59;;;;;;;6.03;2.50;;;57.90;9.10;;;;;;5035496;28;20453;-68
2021/09/09 11:09:29;;;;;;;5.27;3.37;;;58.30;10.00;;;;;;5035238;28;20495;-68
2021/09/09 11:12:04;;;;;;;3.23;2.70;;;58.80;9.30;;;;;;5035463;28;20542;-68
2021/09/09 11:14:32;;;;;;;3.10;2.10;;;59.10;9.00;;;;;;5048827;28;20889;-68
2021/09/09 11:17:00;;;;;;;2.73;2.50;;;59.60;8.10;;;;;;5052360;28;20548;-68
2021/09/09 11:19:27;;;;;;;4.63;2.20;;;59.80;8.10;;;;;;5040791;28;20441;-68
2021/09/09 11:22:04;;;;;;;7.90;2.27;;;59.40;8.40;;;;;;5037921;28;20515;-70
2021/09/09 11:24:37;;;;;;;2.33;2.10;;;59.50;8.40;;;;;;5048184;28;20537;-68
2021/09/09 11:27:14;;;;;;;2.90;2.60;;;59.80;8.50;;;;;;5044105;28;20465;-69
2021/09/09 11:29:41;;;;;;;6.20;3.00;;;60.00;8.00;;;;;;5034614;28;20507;-69
2021/09/09 11:32:09;;;;;;;3.20;2.90;;;58.90;8.30;;;;;;5038264;28;20444;-69
2021/09/09 11:34:36;;;;;;;3.47;3.17;;;58.60;8.70;;;;;;5049191;28;20475;-69
2021/09/09 11:37:05;;;;;;;4.63;4.20;;;58.80;9.20;;;;;;5046290;28;20441;-68
2021/09/09 11:39:35;;;;;;;3.30;3.00;;;59.00;9.00;;;;;;5034762;28;20521;-71
2021/09/09 11:42:05;;;;;;;4.40;2.83;;;59.10;8.80;;;;;;5035009;28;20438;-69
2021/09/09 11:44:34;;;;;;;2.83;2.60;;;58.80;8.60;;;;;;5034200;28;20924;-68
2021/09/09 11:47:09;;;;;;;4.83;2.97;;;58.20;8.70;;;;;;5048813;28;20476;-69
2021/09/09 11:49:36;;;;;;;3.23;2.73;;;57.50;8.40;;;;;;5049699;28;20463;-69
2021/09/09 11:52:07;;;;;;;3.77;3.20;;;56.40;8.70;;;;;;5052256;28;20528;-68
2021/09/09 11:54:36;;;;;;;3.70;3.40;;;55.20;8.80;;;;;;5052278;28;20539;-68
2021/09/09 11:57:05;;;;;;;4.10;2.80;;;54.00;8.90;;;;;;5051224;28;20862;-68
2021/09/09 11:59:33;;;;;;;3.57;3.27;;;52.90;9.90;;;;;;5051936;28;20444;-68
2021/09/09 12:02:05;;;;;;;3.40;3.10;;;52.00;10.70;;;;;;5051643;28;20809;-68
2021/09/09 12:04:34;;;;;;;3.60;3.10;;;51.10;10.80;;;;;;5051522;28;20440;-69
2021/09/09 12:07:02;;;;;;;4.87;3.90;;;50.20;10.40;;;;;;5035580;28;20532;-68
2021/09/09 12:09:33;;;;;;;3.50;3.20;;;49.40;11.40;;;;;;5033401;28;20441;-68
2021/09/09 12:12:11;;;;;;;3.83;3.53;;;48.60;11.80;;;;;;5046017;28;20467;-68
2021/09/09 12:14:40;;;;;;;4.77;3.57;;;47.80;12.10;;;;;;5051957;28;20531;-68
2021/09/09 12:17:09;;;;;;;5.10;3.90;;;47.20;12.00;;;;;;5050560;28;20555;-67
2021/09/09 12:19:56;;;;;;;5.00;4.00;;;46.50;11.90;;;;;;5046764;28;20441;-68
2021/09/09 12:22:46;;;;;;;5.00;4.50;;;45.80;12.80;;;;;;5041335;28;20484;-68
2021/09/09 12:25:24;;;;;;;3.83;3.53;;;45.10;13.50;;;;;;5049963;28;20463;-68
2021/09/09 12:28:00;;;;;;;4.30;3.90;;;44.40;13.60;;;;;;5033565;28;20438;-68
2021/09/09 12:30:30;;;;;;;5.37;3.97;;;43.90;14.00;;;;;;5033740;28;20441;-68
2021/09/09 12:32:57;;;;;;;4.83;4.33;;;43.30;14.70;;;;;;5034644;28;20975;-68
2021/09/09 12:35:26;;;;;;;5.90;4.50;;;42.90;15.20;;;;;;5033345;28;20572;-68
2021/09/09 12:38:17;;;;;;;4.10;3.70;;;42.50;15.10;;;;;;5033213;28;20464;-67
2021/09/09 12:40:48;;;;;;;4.47;4.07;;;42.00;15.40;;;;;;5038942;28;20472;-68
2021/09/09 12:43:30;;;;;;;4.63;3.83;;;41.50;15.50;;;;;;5050522;28;20484;-68
2021/09/09 12:45:58;;;;;;;4.60;3.33;;;41.10;15.50;;;;;;5037601;28;20520;-68
2021/09/09 12:48:25;;;;;;;5.07;4.57;;;40.60;16.10;;;;;;5033284;28;20528;-68
2021/09/09 12:50:57;;;;;;;4.07;3.67;;;40.20;17.60;;;;;;5033508;28;20449;-68
2021/09/09 12:53:27;;;;;;;6.93;4.40;;;39.70;17.20;;;;;;5033370;28;20476;-67
2021/09/09 12:56:03;;;;;;;5.60;3.70;;;39.20;17.50;;;;;;5032831;28;20448;-70
2021/09/09 12:58:30;;;;;;;4.80;3.67;;;38.80;17.70;;;;;;5033318;28;20445;-69